Time;durP1;ratioP1;P1;durP2;ratioP2;P2;SDS_P1;SDS_P2;PMS_P1;PMS_P2;Temp;Humidity;BMP_temperature;BMP_pressure;BME280_temperature;BME280_humidity;BME280_pressure;Samples;Min_cycle;Max_cycle;Signal;HPM_P1;HPM_P2
2022/05/06 00:55:26;;;;;;;7.50;3.10;;;;;;;7.96;40.86;100593.23;104679;1274;138103;-62
2022/05/06 00:57:54;;;;;;;8.20;3.60;;;;;;;7.93;40.59;100588.98;109059;1276;24489;-63
2022/05/06 01:00:23;;;;;;;7.20;4.00;;;;;;;7.90;40.98;100587.63;109167;1274;23245;-63
2022/05/06 01:02:51;;;;;;;5.50;3.30;;;;;;;7.87;40.94;100585.05;109017;1274;138453;-63
2022/05/06 01:05:19;;;;;;;5.40;3.60;;;;;;;7.83;41.00;100587.48;109151;1276;23163;-63
2022/05/06 01:07:49;;;;;;;11.60;3.70;;;;;;;7.80;41.25;100590.45;109067;1274;138127;-63
2022/05/06 01:10:18;;;;;;;7.00;3.60;;;;;;;7.77;41.35;100590.73;109157;1274;22481;-63
2022/05/06 01:12:48;;;;;;;5.00;3.40;;;;;;;7.74;41.38;100590.60;109065;1274;137418;-63
2022/05/06 01:15:22;;;;;;;4.80;3.10;;;;;;;7.72;41.72;100593.23;108894;1274;24943;-63
2022/05/06 01:17:58;;;;;;;6.40;3.40;;;;;;;7.67;41.64;100585.02;109164;1275;22418;-63
2022/05/06 01:20:27;;;;;;;9.60;3.60;;;;;;;7.67;41.94;100590.61;109112;1274;136961;-63
2022/05/06 01:22:58;;;;;;;6.70;3.00;;;;;;;7.66;41.82;100590.48;109257;1274;22508;-63
2022/05/06 01:25:26;;;;;;;9.20;4.00;;;;;;;7.64;42.15;100591.48;109094;1274;138555;-64
2022/05/06 01:28:05;;;;;;;5.80;3.30;;;;;;;7.63;42.37;100595.83;109144;1274;22416;-63
2022/05/06 01:30:37;;;;;;;8.40;3.80;;;;;;;7.61;42.41;100596.45;109166;1276;22591;-64
2022/05/06 01:33:07;;;;;;;6.70;3.30;;;;;;;7.58;42.81;100600.95;109048;1274;136907;-63
2022/05/06 01:35:41;;;;;;;6.70;3.80;;;;;;;7.56;42.38;100597.94;109275;1274;22624;-64
2022/05/06 01:38:10;;;;;;;7.50;2.90;;;;;;;7.54;42.87;100598.77;109104;1274;137930;-63
2022/05/06 01:40:39;;;;;;;6.80;3.60;;;;;;;7.50;43.53;100594.88;109092;1274;22387;-64
2022/05/06 01:43:11;;;;;;;13.10;4.00;;;;;;;7.43;43.86;100598.14;109070;1275;139168;-63
2022/05/06 01:45:41;;;;;;;9.50;4.20;;;;;;;7.34;44.14;100598.98;109182;1274;23577;-63
2022/05/06 01:48:10;;;;;;;10.10;4.10;;;;;;;7.28;44.08;100596.29;109100;1276;22481;-63
2022/05/06 01:50:39;;;;;;;5.40;3.50;;;;;;;7.25;44.62;100606.74;109155;1274;137441;-63
2022/05/06 01:53:09;;;;;;;6.20;3.70;;;;;;;7.19;45.10;100609.27;109174;1274;22409;-63
2022/05/06 01:55:41;;;;;;;8.20;4.60;;;;;;;7.13;45.74;100611.51;108958;1276;137181;-62
2022/05/06 01:58:11;;;;;;;6.30;4.00;;;;;;;7.07;45.91;100613.64;109221;1274;22693;-63
2022/05/06 02:00:44;;;;;;;7.20;4.90;;;;;;;6.97;46.46;100616.63;109072;1276;137364;-64
2022/05/06 02:06:05;;;;;;;9.20;4.70;;;;;;;6.77;47.11;100614.87;109118;1274;22461;-64
2022/05/06 02:08:37;;;;;;;8.00;5.00;;;;;;;6.66;47.74;100619.35;109031;1274;137479;-64
2022/05/06 02:11:08;;;;;;;6.50;4.50;;;;;;;6.54;47.88;100619.99;109113;1275;22455;-64
2022/05/06 02:13:37;;;;;;;6.70;4.30;;;;;;;6.44;48.56;100617.35;108966;1277;139057;-64
2022/05/06 02:16:21;;;;;;;9.70;4.90;;;;;;;6.33;48.99;100617.36;109101;1274;22431;-64
2022/05/06 02:19:07;;;;;;;12.20;5.70;;;;;;;6.21;49.58;100618.20;109128;1274;137877;-63
2022/05/06 02:21:52;;;;;;;7.00;4.90;;;;;;;6.11;49.63;100621.39;109165;1274;23175;-64
2022/05/06 02:24:43;;;;;;;7.60;4.70;;;;;;;6.01;50.17;100620.27;109111;1274;137278;-63
2022/05/06 02:27:26;;;;;;;10.30;4.20;;;;;;;5.94;50.20;100622.77;109142;1274;22519;-64
2022/05/06 02:35:34;;;;;;;10.40;5.20;;;;;;;5.79;50.93;100637.55;109169;1274;22432;-64
2022/05/06 02:38:03;;;;;;;7.00;4.10;;;;;;;5.75;51.09;100637.27;109075;1274;137555;-64
2022/05/06 02:40:34;;;;;;;10.60;5.90;;;;;;;5.70;50.74;100634.40;109182;1274;22510;-64
2022/05/06 02:43:04;;;;;;;13.90;6.20;;;;;;;5.67;51.46;100637.52;109075;1274;139118;-64
2022/05/06 02:45:34;;;;;;;12.30;6.60;;;;;;;5.64;51.27;100643.49;109149;1275;22428;-64
2022/05/06 02:48:03;;;;;;;13.20;7.10;;;;;;;5.60;51.75;100644.16;109108;1274;22432;-64
2022/05/06 02:50:34;;;;;;;12.10;7.40;;;;;;;5.56;51.57;100646.36;109035;1275;138549;-64
2022/05/06 02:53:03;;;;;;;13.40;7.80;;;;;;;5.53;51.73;100641.52;109144;1273;22383;-64
2022/05/06 02:55:32;;;;;;;19.50;7.50;;;;;;;5.51;51.55;100639.46;109034;1275;137303;-64
2022/05/06 02:58:00;;;;;;;13.00;7.00;;;;;;;5.51;51.71;100638.01;109169;1274;22245;-64
2022/05/06 03:00:30;;;;;;;14.50;7.20;;;;;;;5.52;52.53;100640.59;109165;1274;22498;-64
2022/05/06 03:02:59;;;;;;;11.40;7.60;;;;;;;5.49;52.73;100635.38;109054;1274;137255;-64
2022/05/06 03:05:28;;;;;;;18.30;8.20;;;;;;;5.51;53.26;100634.21;109183;1274;22371;-64
2022/05/06 03:07:56;;;;;;;17.40;8.50;;;;;;;5.51;53.12;100633.85;109094;1274;138681;-63
2022/05/06 03:10:26;;;;;;;17.50;9.00;;;;;;;5.51;53.84;100635.84;109218;1274;22409;-64
2022/05/06 03:12:58;;;;;;;25.40;11.30;;;;;;;5.50;54.10;100637.91;109052;1274;138553;-64
2022/05/06 03:15:26;;;;;;;20.10;10.40;;;;;;;5.52;54.17;100638.64;109145;1274;22396;-64
2022/05/06 03:18:01;;;;;;;17.40;9.40;;;;;;;5.54;54.05;100638.08;109145;1276;22397;-64
2022/05/06 03:20:29;;;;;;;15.60;7.70;;;;;;;5.64;53.76;100641.30;109104;1274;137487;-64
2022/05/06 03:22:57;;;;;;;16.20;7.70;;;;;;;5.78;53.36;100643.38;109229;1274;23098;-64
2022/05/06 03:25:25;;;;;;;14.00;6.60;;;;;;;5.91;53.67;100641.94;109059;1274;139288;-64
2022/05/06 03:27:59;;;;;;;12.50;5.30;;;;;;;6.03;53.32;100645.05;109214;1274;23106;-64
2022/05/06 03:30:31;;;;;;;9.30;5.60;;;;;;;6.18;53.16;100641.20;109247;1274;22466;-64
2022/05/06 03:33:09;;;;;;;12.00;5.30;;;;;;;6.33;52.80;100642.17;109015;1276;137990;-64
2022/05/06 03:35:38;;;;;;;9.60;4.00;;;;;;;6.48;52.93;100643.55;109214;1275;23261;-64
2022/05/06 03:38:06;;;;;;;7.10;4.20;;;;;;;6.61;52.44;100644.80;109187;1274;137137;-64
2022/05/06 03:40:36;;;;;;;8.90;4.50;;;;;;;6.71;52.42;100649.52;109114;1275;22398;-64
2022/05/06 03:43:05;;;;;;;11.10;3.90;;;;;;;6.80;52.64;100653.08;109136;1274;137316;-64
2022/05/06 03:45:36;;;;;;;12.10;5.60;;;;;;;6.90;51.53;100658.06;109242;1274;22220;-64
2022/05/06 03:48:04;;;;;;;7.80;3.80;;;;;;;7.00;51.84;100654.82;109109;1275;23578;-64
2022/05/06 03:53:24;;;;;;;11.10;4.40;;;;;;;7.23;51.74;100661.77;109194;1275;22410;-64
2022/05/06 03:55:52;;;;;;;95.60;34.20;;;;;;;7.34;51.49;100658.02;109048;1275;137731;-63
2022/05/06 03:58:21;;;;;;;80.30;35.00;;;;;;;7.45;51.18;100657.33;109110;1275;22524;-64
2022/05/06 04:00:50;;;;;;;42.10;21.10;;;;;;;7.57;50.94;100663.86;108940;1274;138989;-63
2022/05/06 04:03:18;;;;;;;22.30;12.00;;;;;;;7.69;50.34;100661.59;109268;1274;22408;-63
2022/05/06 04:05:47;;;;;;;16.70;10.30;;;;;;;7.84;49.63;100667.49;109157;1275;22538;-64
2022/05/06 04:08:15;;;;;;;14.20;7.60;;;;;;;7.98;49.46;100667.92;109103;1274;137616;-64
2022/05/06 04:10:44;;;;;;;16.00;7.30;;;;;;;8.11;49.26;100669.71;109164;1274;22432;-64
2022/05/06 04:13:16;;;;;;;17.30;12.70;;;;;;;8.23;48.92;100668.13;109083;1274;137920;-64
2022/05/06 04:15:47;;;;;;;18.70;12.90;;;;;;;8.36;48.73;100668.68;109234;1274;22542;-64
2022/05/06 04:18:15;;;;;;;30.40;17.10;;;;;;;8.50;48.81;100661.36;109161;1274;22449;-64
2022/05/06 04:23:34;;;;;;;27.70;13.20;;;;;;;8.76;47.83;100662.06;109179;1274;22452;-64
2022/05/06 04:26:07;;;;;;;27.50;15.50;;;;;;;8.90;47.87;100665.06;109130;1274;138121;-64
2022/05/06 04:28:37;;;;;;;13.00;7.00;;;;;;;9.03;47.73;100659.54;109130;1276;22431;-64
2022/05/06 04:31:07;;;;;;;9.70;5.90;;;;;;;9.15;47.19;100661.95;109057;1275;137638;-64
2022/05/06 04:33:41;;;;;;;11.40;3.80;;;;;;;9.27;46.54;100665.12;109165;1274;22490;-64
2022/05/06 04:36:17;;;;;;;7.30;3.50;;;;;;;9.41;45.99;100669.20;109152;1275;22377;-64
2022/05/06 04:38:48;;;;;;;6.40;3.70;;;;;;;9.55;45.72;100666.31;109116;1274;137362;-64
2022/05/06 04:41:17;;;;;;;8.70;4.20;;;;;;;9.70;45.43;100671.52;108996;1277;23307;-64
2022/05/06 04:43:45;;;;;;;14.00;6.10;;;;;;;9.85;44.78;100670.83;109023;1274;138509;-64
2022/05/06 04:57:47;;;;;;;9.70;4.40;;;;;;;11.17;42.78;100668.63;100784;1320;577158;-63
2022/05/06 05:00:17;;;;;;;6.50;3.20;;;;;;;11.86;42.10;100671.98;107043;1293;378040;-65
2022/05/06 05:02:46;;;;;;;7.40;4.60;;;;;;;12.25;41.08;100666.40;107326;1293;22426;-64
2022/05/06 05:05:15;;;;;;;9.40;4.00;;;;;;;12.62;40.06;100666.84;107417;1293;22233;-64
2022/05/06 05:07:43;;;;;;;7.60;4.10;;;;;;;13.00;39.55;100663.75;107528;1292;22442;-65
2022/05/06 05:10:14;;;;;;;9.00;5.30;;;;;;;13.36;38.85;100660.87;107385;1292;137738;-64
2022/05/06 05:12:43;;;;;;;26.80;4.20;;;;;;;13.68;38.29;100667.41;107555;1291;22613;-64
2022/05/06 05:15:11;;;;;;;6.80;3.10;;;;;;;13.96;38.08;100667.88;107350;1293;138222;-64
2022/05/06 05:17:39;;;;;;;10.80;3.70;;;;;;;14.28;37.32;100666.40;107480;1292;22439;-64
2022/05/06 05:20:08;;;;;;;8.50;3.40;;;;;;;14.64;36.59;100669.61;107454;1292;137357;-64
2022/05/06 05:22:38;;;;;;;10.20;3.30;;;;;;;14.94;36.16;100668.41;107870;1288;23240;-64
2022/05/06 05:25:09;;;;;;;6.10;3.50;;;;;;;15.22;35.58;100660.95;107886;1290;22507;-65
2022/05/06 05:27:37;;;;;;;10.70;4.50;;;;;;;15.48;35.05;100658.09;107866;1288;138284;-64
2022/05/06 05:30:07;;;;;;;17.50;5.40;;;;;;;15.73;34.72;100661.38;107971;1289;22435;-63
2022/05/06 05:32:37;;;;;;;9.30;3.40;;;;;;;15.94;34.42;100663.01;107811;1288;137823;-64
2022/05/06 05:35:07;;;;;;;6.00;3.20;;;;;;;16.07;34.21;100663.47;107998;1288;22247;-64
2022/05/06 05:37:39;;;;;;;5.00;2.90;;;;;;;16.25;33.96;100671.98;108006;1288;22473;-64
2022/05/06 05:40:08;;;;;;;6.70;3.40;;;;;;;16.43;33.39;100665.63;107838;1288;137569;-64
2022/05/06 05:42:39;;;;;;;5.40;3.10;;;;;;;16.61;33.35;100666.91;107950;1289;22462;-64
2022/05/06 05:51:01;;;;;;;5.70;2.40;;;;;;;16.89;32.75;100665.91;107552;1290;138725;-64
2022/05/06 05:53:34;;;;;;;3.40;2.60;;;;;;;16.94;32.41;100658.93;107864;1290;23604;-64
2022/05/06 05:56:03;;;;;;;4.40;2.40;;;;;;;16.94;32.24;100658.77;107856;1288;137913;-64
2022/05/06 05:58:34;;;;;;;6.60;3.00;;;;;;;16.87;31.81;100658.76;107627;1290;22419;-64
2022/05/06 06:01:03;;;;;;;5.20;2.60;;;;;;;16.77;32.09;100664.67;107767;1290;22459;-63
2022/05/06 06:03:35;;;;;;;6.10;2.60;;;;;;;16.65;32.24;100667.71;107762;1290;137621;-63
2022/05/06 06:06:06;;;;;;;3.70;2.70;;;;;;;16.54;32.51;100664.85;107688;1290;22446;-63
2022/05/06 06:08:34;;;;;;;3.70;2.50;;;;;;;16.41;32.36;100663.30;107590;1290;138167;-63
2022/05/06 06:11:04;;;;;;;15.30;3.60;;;;;;;16.23;32.67;100664.21;107848;1290;22505;-64
2022/05/06 06:13:39;;;;;;;7.00;2.70;;;;;;;16.02;32.60;100659.98;107817;1290;23458;-64
2022/05/06 06:16:10;;;;;;;7.70;3.00;;;;;;;15.86;32.72;100662.73;107775;1288;138330;-64
2022/05/06 06:18:39;;;;;;;7.80;2.80;;;;;;;15.70;33.05;100663.55;107949;1288;22537;-63
2022/05/06 06:21:07;;;;;;;5.20;2.70;;;;;;;15.56;33.38;100663.82;107737;1290;137869;-63
2022/05/06 06:23:36;;;;;;;6.50;2.90;;;;;;;15.43;34.14;100663.54;107999;1288;22483;-64
2022/05/06 06:26:04;;;;;;;7.60;3.00;;;;;;;15.35;34.08;100670.83;107585;1289;138327;-64
2022/05/06 06:28:34;;;;;;;8.90;2.90;;;;;;;15.25;33.86;100665.80;107882;1286;22519;-63
2022/05/06 06:31:02;;;;;;;10.20;2.50;;;;;;;15.17;33.79;100668.13;107960;1288;22426;-63
2022/05/06 06:33:32;;;;;;;4.30;2.40;;;;;;;15.09;32.50;100669.94;107732;1288;137807;-63
2022/05/06 06:36:00;;;;;;;7.50;2.50;;;;;;;14.96;33.65;100672.71;107885;1288;22582;-63
2022/05/06 06:38:33;;;;;;;4.60;2.40;;;;;;;14.91;33.81;100673.30;107736;1288;137925;-63
2022/05/06 06:41:01;;;;;;;6.00;2.00;;;;;;;14.90;33.86;100667.32;107949;1288;22438;-63
2022/05/06 06:43:29;;;;;;;6.70;2.40;;;;;;;14.91;33.95;100671.50;107982;1288;23230;-63
2022/05/06 06:46:19;;;;;;;3.30;2.00;;;;;;;14.97;33.89;100675.91;107793;1288;137371;-64
2022/05/06 06:49:03;;;;;;;3.50;2.20;;;;;;;15.01;32.95;100675.71;107841;1290;22283;-63
2022/05/06 06:51:50;;;;;;;5.80;2.30;;;;;;;15.03;33.48;100671.95;107835;1288;137220;-64
2022/05/06 06:54:18;;;;;;;4.20;1.70;;;;;;;15.03;34.01;100676.55;107988;1288;22437;-63
2022/05/06 06:56:46;;;;;;;3.60;2.00;;;;;;;15.04;33.26;100678.88;107845;1288;139124;-63
2022/05/06 06:59:14;;;;;;;3.80;1.80;;;;;;;15.06;33.26;100679.19;107888;1290;22428;-64
2022/05/06 07:01:42;;;;;;;3.50;2.40;;;;;;;15.08;33.32;100676.85;107986;1288;22396;-64
2022/05/06 07:04:10;;;;;;;2.60;1.60;;;;;;;15.10;32.88;100676.16;107851;1288;137163;-64
2022/05/06 07:12:12;;;;;;;4.30;2.20;;;;;;;15.15;31.36;100676.19;107998;1287;23331;-64
2022/05/06 07:14:41;;;;;;;3.00;1.60;;;;;;;15.17;31.83;100671.53;107760;1290;138610;-64
2022/05/06 07:17:10;;;;;;;6.70;1.60;;;;;;;15.19;31.62;100670.58;107957;1288;22635;-64
2022/05/06 07:19:38;;;;;;;5.60;1.60;;;;;;;15.22;31.40;100670.92;107974;1288;22457;-64
2022/05/06 07:22:06;;;;;;;9.40;2.10;;;;;;;15.26;31.09;100672.95;107866;1287;137430;-64
2022/05/06 07:24:39;;;;;;;5.70;1.80;;;;;;;15.31;31.15;100671.34;107973;1288;22455;-63
2022/05/06 07:27:07;;;;;;;2.70;2.20;;;;;;;15.33;31.56;100671.19;107890;1288;137748;-64
2022/05/06 07:29:36;;;;;;;3.60;1.90;;;;;;;15.34;31.94;100669.83;107958;1288;22507;-64
2022/05/06 07:32:05;;;;;;;5.20;1.90;;;;;;;15.35;30.62;100670.17;107914;1288;138389;-64
2022/05/06 07:34:34;;;;;;;6.90;2.10;;;;;;;15.34;30.54;100664.50;107953;1288;23603;-64
2022/05/06 07:37:03;;;;;;;2.80;2.20;;;;;;;15.37;30.62;100665.95;107985;1288;22419;-64
2022/05/06 07:39:31;;;;;;;4.20;1.90;;;;;;;15.39;31.73;100670.20;107888;1288;137339;-64
2022/05/06 07:42:00;;;;;;;2.50;1.80;;;;;;;15.40;31.56;100673.96;108008;1288;22426;-64
2022/05/06 07:44:29;;;;;;;4.90;1.70;;;;;;;15.39;31.53;100667.19;107858;1288;138639;-64
2022/05/06 07:46:57;;;;;;;11.40;2.30;;;;;;;15.37;31.32;100668.48;107983;1288;23049;-64
2022/05/06 07:49:25;;;;;;;3.60;1.90;;;;;;;15.34;30.86;100670.54;107987;1288;22469;-64
2022/05/06 07:51:53;;;;;;;1.60;1.50;;;;;;;15.35;30.87;100668.52;107886;1288;137369;-64
2022/05/06 07:54:21;;;;;;;7.30;2.30;;;;;;;15.36;31.21;100669.14;107994;1288;23281;-64
2022/05/06 07:56:50;;;;;;;6.50;2.20;;;;;;;15.39;30.94;100671.52;107833;1288;138999;-64
2022/05/06 07:59:18;;;;;;;7.20;1.90;;;;;;;15.40;30.37;100672.20;107951;1288;22425;-64
2022/05/06 08:04:50;;;;;;;4.50;1.90;;;;;;;15.45;30.52;100663.10;107089;1296;22590;-65
2022/05/06 08:07:21;;;;;;;2.80;2.00;;;;;;;15.47;29.65;100660.33;107122;1296;23015;-65
2022/05/06 08:09:49;;;;;;;12.60;2.50;;;;;;;15.48;30.09;100659.35;106970;1295;137598;-64
2022/05/06 08:12:17;;;;;;;4.70;2.00;;;;;;;15.49;30.61;100662.27;107077;1296;22532;-64
2022/05/06 08:14:46;;;;;;;4.10;2.10;;;;;;;15.50;30.43;100658.38;106993;1296;137784;-63
2022/05/06 08:17:14;;;;;;;3.80;2.30;;;;;;;15.50;30.40;100656.40;107109;1296;22523;-64
2022/05/06 08:19:42;;;;;;;6.20;2.70;;;;;;;15.50;30.71;100657.89;107089;1296;22515;-64
2022/05/06 08:22:11;;;;;;;5.60;2.50;;;;;;;15.50;31.17;100662.84;107580;1290;137430;-64
2022/05/06 08:24:39;;;;;;;7.50;2.20;;;;;;;15.46;30.10;100659.54;107660;1290;23065;-64
2022/05/06 08:27:27;;;;;;;4.10;2.70;;;;;;;15.39;29.93;100657.58;107598;1290;138220;-64
2022/05/06 08:29:55;;;;;;;8.80;2.70;;;;;;;15.35;30.45;100655.34;107691;1289;22590;-64
2022/05/06 08:32:23;;;;;;;5.70;3.00;;;;;;;15.38;31.55;100656.69;107572;1290;138017;-63
2022/05/06 08:34:52;;;;;;;4.30;2.10;;;;;;;15.43;31.88;100654.64;107677;1290;22510;-64
2022/05/06 08:37:21;;;;;;;4.30;2.10;;;;;;;15.52;32.12;100655.10;107688;1290;23257;-64
2022/05/06 08:39:49;;;;;;;8.40;2.90;;;;;;;15.61;31.24;100655.63;108099;1284;137780;-64
2022/05/06 08:42:21;;;;;;;8.20;1.90;;;;;;;15.64;29.92;100647.69;108523;1284;22464;-64
2022/05/06 08:53:09;;;;;;;2.80;1.90;;;;;;;15.65;29.23;100652.20;108463;1284;23116;-64
2022/05/06 08:55:37;;;;;;;4.10;1.90;;;;;;;15.64;28.60;100643.95;108385;1284;22394;-64
2022/05/06 08:58:06;;;;;;;5.20;1.60;;;;;;;15.56;28.86;100640.27;108398;1284;137698;-63
2022/05/06 09:00:34;;;;;;;5.80;2.30;;;;;;;15.50;28.82;100634.48;108525;1284;22437;-63
2022/05/06 09:03:02;;;;;;;7.80;3.30;;;;;;;15.50;29.16;100634.04;108357;1284;138192;-63
2022/05/06 09:05:31;;;;;;;5.60;2.20;;;;;;;15.54;30.34;100629.10;108531;1283;22426;-63
2022/05/06 09:08:02;;;;;;;5.30;2.30;;;;;;;15.59;30.64;100627.05;108483;1283;22483;-64
2022/05/06 09:10:30;;;;;;;8.80;2.10;;;;;;;15.62;30.19;100623.49;108364;1284;139089;-64
2022/05/06 09:13:02;;;;;;;4.00;1.90;;;;;;;15.64;30.26;100618.57;108509;1283;22518;-64
2022/05/06 09:18:17;;;;;;;6.00;3.00;;;;;;;15.78;29.59;100613.70;108514;1283;22439;-64
2022/05/06 09:21:13;;;;;;;11.00;5.10;;;;;;;15.88;29.29;100616.09;108524;1282;22456;-64
2022/05/06 09:23:41;;;;;;;11.80;3.50;;;;;;;15.96;29.29;100614.75;108488;1283;22506;-64
2022/05/06 09:26:15;;;;;;;3.40;2.70;;;;;;;15.99;30.03;100611.09;108476;1284;22456;-64
2022/05/06 09:28:43;;;;;;;5.20;2.80;;;;;;;16.01;29.81;100612.30;108362;1283;138708;-64
2022/05/06 09:31:11;;;;;;;8.50;3.00;;;;;;;16.01;29.47;100611.60;108489;1283;22460;-64
2022/05/06 09:33:41;;;;;;;3.60;2.20;;;;;;;16.01;29.89;100611.76;108405;1283;138411;-64
2022/05/06 09:36:25;;;;;;;5.30;3.20;;;;;;;16.03;29.84;100611.37;108530;1283;23133;-64
2022/05/06 09:39:03;;;;;;;4.00;2.40;;;;;;;16.07;29.96;100608.20;108477;1283;22437;-64
2022/05/06 09:41:34;;;;;;;4.70;2.20;;;;;;;16.12;29.53;100601.58;108309;1283;137420;-64
2022/05/06 09:44:03;;;;;;;5.60;2.90;;;;;;;16.14;29.66;100601.92;108438;1283;22413;-64
2022/05/06 09:46:32;;;;;;;7.60;2.40;;;;;;;16.16;29.88;100604.73;108393;1284;137838;-64
2022/05/06 09:49:02;;;;;;;4.20;2.60;;;;;;;16.18;29.38;100604.51;108418;1283;22458;-64
2022/05/06 09:51:50;;;;;;;4.90;2.50;;;;;;;16.18;29.93;100602.97;108376;1284;138610;-64
2022/05/06 09:54:30;;;;;;;6.40;2.20;;;;;;;16.21;30.52;100607.61;108474;1283;22281;-64
2022/05/06 09:56:59;;;;;;;6.40;2.40;;;;;;;16.27;30.92;100604.45;108452;1283;22284;-64
2022/05/06 09:59:28;;;;;;;8.20;2.40;;;;;;;16.31;29.98;100599.45;108343;1284;137994;-64
2022/05/06 10:01:56;;;;;;;5.90;3.10;;;;;;;16.38;29.33;100596.56;108468;1283;22395;-64
2022/05/06 10:04:24;;;;;;;5.60;3.10;;;;;;;16.38;29.48;100600.73;108417;1284;137755;-64
2022/05/06 10:06:52;;;;;;;7.90;2.40;;;;;;;16.39;29.88;100595.30;108483;1283;22548;-64
2022/05/06 10:09:20;;;;;;;13.40;3.20;;;;;;;16.45;29.83;100599.11;108348;1284;137737;-63
2022/05/06 10:11:49;;;;;;;3.70;2.30;;;;;;;16.49;30.20;100599.12;108502;1284;22446;-64
2022/05/06 10:14:19;;;;;;;3.20;1.80;;;;;;;16.51;29.19;100600.13;108438;1283;22528;-64
2022/05/06 10:16:48;;;;;;;8.70;2.90;;;;;;;16.48;29.41;100597.75;108293;1284;138314;-64
2022/05/06 10:19:29;;;;;;;4.30;2.80;;;;;;;16.47;29.46;100600.83;108481;1283;22468;-64
2022/05/06 10:21:57;;;;;;;6.60;2.10;;;;;;;16.46;29.90;100597.23;108344;1284;140145;-64
2022/05/06 10:24:25;;;;;;;3.60;2.20;;;;;;;16.44;29.61;100599.00;108451;1283;22427;-64
2022/05/06 10:26:53;;;;;;;4.50;1.60;;;;;;;16.44;29.67;100597.91;108479;1284;22406;-64
2022/05/06 10:32:50;;;;;;;4.10;2.00;;;;;;;16.40;29.61;100592.83;108455;1283;22415;-64
2022/05/06 10:35:19;;;;;;;4.70;2.00;;;;;;;16.38;29.71;100590.63;108363;1283;137767;-64
2022/05/06 10:37:47;;;;;;;7.40;1.90;;;;;;;16.36;29.54;100585.11;108462;1283;23141;-64
2022/05/06 10:40:33;;;;;;;5.30;2.50;;;;;;;16.35;29.86;100579.60;108394;1284;139786;-64
2022/05/06 10:43:04;;;;;;;7.10;3.40;;;;;;;16.37;30.58;100577.02;108516;1283;22428;-64
2022/05/06 10:45:35;;;;;;;7.00;2.20;;;;;;;16.43;29.77;100579.14;108370;1283;137846;-64
2022/05/06 10:48:21;;;;;;;5.00;2.10;;;;;;;16.49;29.54;100576.13;108512;1283;22471;-64
2022/05/06 10:50:49;;;;;;;3.40;2.20;;;;;;;16.53;30.13;100577.23;108491;1283;22480;-64
2022/05/06 10:53:35;;;;;;;3.20;1.90;;;;;;;16.56;29.96;100567.52;108391;1284;137651;-64
2022/05/06 10:56:03;;;;;;;10.60;2.00;;;;;;;16.59;29.56;100568.17;106881;1284;25443;-63
2022/05/06 10:58:33;;;;;;;11.20;2.50;;;;;;;16.66;30.14;100569.37;103981;1284;139407;-63
2022/05/06 11:01:01;;;;;;;7.80;2.10;;;;;;;16.72;30.99;100566.86;104090;1284;22798;-63
2022/05/06 11:03:29;;;;;;;4.90;2.50;;;;;;;16.78;31.63;100566.41;108351;1283;138561;-64
2022/05/06 11:05:59;;;;;;;4.60;2.50;;;;;;;16.85;30.04;100555.48;108501;1284;23530;-64
2022/05/06 11:08:33;;;;;;;5.50;2.20;;;;;;;16.87;29.41;100552.51;108489;1284;23229;-64
2022/05/06 11:11:01;;;;;;;4.20;2.00;;;;;;;16.88;29.75;100550.15;108361;1284;137581;-65
2022/05/06 11:13:34;;;;;;;3.10;1.80;;;;;;;16.89;30.15;100544.61;108513;1284;22464;-65
2022/05/06 11:16:07;;;;;;;4.60;2.20;;;;;;;16.93;30.66;100543.75;108314;1284;138387;-63
2022/05/06 11:18:44;;;;;;;6.50;1.90;;;;;;;16.97;30.57;100540.06;108496;1284;22460;-63
2022/05/06 11:21:39;;;;;;;5.60;2.20;;;;;;;17.03;29.80;100538.73;108453;1283;23124;-64
2022/05/06 11:24:17;;;;;;;3.40;2.20;;;;;;;17.07;28.96;100534.88;108421;1283;23591;-65
2022/05/06 11:26:45;;;;;;;5.60;1.80;;;;;;;17.09;28.51;100532.62;108507;1283;23458;-66
2022/05/06 11:29:13;;;;;;;5.40;2.00;;;;;;;17.08;28.89;100525.73;108298;1284;138601;-66
2022/05/06 11:31:40;;;;;;;6.40;2.00;;;;;;;17.10;29.32;100524.30;108427;1284;23916;-64
2022/05/06 11:34:10;;;;;;;3.70;2.20;;;;;;;17.13;28.69;100522.48;108146;1284;138275;-64
2022/05/06 11:36:38;;;;;;;6.70;1.90;;;;;;;17.14;28.48;100520.95;108260;1284;22407;-64
2022/05/06 11:39:11;;;;;;;5.50;2.70;;;;;;;17.16;28.94;100521.72;108495;1283;23157;-65
2022/05/06 11:41:39;;;;;;;3.40;2.20;;;;;;;17.19;28.17;100520.86;108374;1284;137589;-64
2022/05/06 11:44:07;;;;;;;14.00;5.60;;;;;;;17.19;28.14;100517.67;108514;1284;23098;-65
2022/05/06 11:49:24;;;;;;;10.20;2.30;;;;;;;17.27;29.14;100513.94;108423;1283;22459;-65
2022/05/06 11:51:52;;;;;;;5.40;2.50;;;;;;;17.32;29.94;100510.60;108396;1283;139996;-64
2022/05/06 11:54:22;;;;;;;3.20;2.20;;;;;;;17.37;29.33;100503.94;108495;1284;22504;-65
2022/05/06 11:56:50;;;;;;;9.50;2.70;;;;;;;17.40;28.80;100506.80;105379;1284;24257;-64
2022/05/06 11:59:18;;;;;;;10.70;3.60;;;;;;;17.42;29.02;100503.00;103954;1284;137883;-65
2022/05/06 12:01:46;;;;;;;4.10;2.70;;;;;;;17.44;29.02;100497.10;108387;1284;23545;-65
2022/05/06 12:04:14;;;;;;;8.30;3.10;;;;;;;17.45;29.46;100489.85;108393;1283;138965;-65
2022/05/06 12:06:49;;;;;;;4.80;2.30;;;;;;;17.50;28.25;100493.87;108485;1284;22413;-65
2022/05/06 12:09:24;;;;;;;6.70;3.00;;;;;;;17.50;28.33;100494.20;108525;1283;22456;-65
2022/05/06 12:12:04;;;;;;;3.60;2.20;;;;;;;17.50;28.06;100489.46;108392;1284;138018;-65
2022/05/06 12:14:32;;;;;;;5.20;2.50;;;;;;;17.49;27.85;100486.65;108468;1283;23342;-65
2022/05/06 12:17:01;;;;;;;9.80;3.00;;;;;;;17.45;28.12;100478.17;108386;1284;138779;-64
2022/05/06 12:19:41;;;;;;;7.90;3.00;;;;;;;17.48;27.80;100486.15;108463;1283;22555;-64
2022/05/06 12:22:22;;;;;;;4.80;2.00;;;;;;;17.48;27.89;100484.17;108401;1283;137486;-64
2022/05/06 12:24:51;;;;;;;6.20;2.30;;;;;;;17.45;27.80;100478.31;108486;1284;22492;-64
2022/05/06 12:27:26;;;;;;;6.50;2.50;;;;;;;17.43;27.70;100476.33;108438;1283;22514;-64
2022/05/06 12:29:55;;;;;;;7.60;2.40;;;;;;;17.43;27.72;100470.59;108400;1283;138202;-64
2022/05/06 12:32:23;;;;;;;5.60;3.20;;;;;;;17.43;27.76;100467.29;108493;1284;22444;-64
2022/05/06 12:35:08;;;;;;;8.20;2.70;;;;;;;17.43;27.36;100463.44;108339;1284;137474;-65
2022/05/06 12:37:37;;;;;;;6.30;3.00;;;;;;;17.43;27.42;100462.05;108490;1284;22273;-64
2022/05/06 12:40:05;;;;;;;5.80;2.70;;;;;;;17.41;27.70;100459.02;108376;1284;138243;-64
2022/05/06 12:42:33;;;;;;;6.60;2.30;;;;;;;17.39;27.89;100458.80;108500;1283;22442;-64
2022/05/06 12:45:21;;;;;;;4.60;2.50;;;;;;;17.38;27.73;100451.48;108499;1284;22411;-64
2022/05/06 12:50:43;;;;;;;8.00;3.10;;;;;;;17.38;28.00;100443.54;108505;1283;22496;-64
2022/05/06 12:53:11;;;;;;;4.80;2.20;;;;;;;17.41;27.77;100436.10;108343;1283;137574;-64
2022/05/06 12:55:41;;;;;;;12.80;2.80;;;;;;;17.45;27.58;100430.86;108487;1284;22503;-64
2022/05/06 12:58:10;;;;;;;11.10;2.70;;;;;;;17.45;27.42;100422.73;108395;1282;139024;-64
2022/05/06 13:00:39;;;;;;;7.30;2.60;;;;;;;17.50;27.83;100428.73;108489;1284;22463;-64
2022/05/06 13:03:07;;;;;;;9.50;2.50;;;;;;;17.55;27.65;100430.77;108426;1284;22270;-64
2022/05/06 13:05:36;;;;;;;4.70;2.40;;;;;;;17.61;28.06;100434.04;108388;1284;137516;-65
2022/05/06 13:08:06;;;;;;;6.70;2.40;;;;;;;17.64;27.42;100431.67;108491;1284;22471;-65
2022/05/06 13:10:35;;;;;;;6.60;2.50;;;;;;;17.66;27.22;100432.39;108425;1284;138557;-65
2022/05/06 13:13:04;;;;;;;5.70;2.70;;;;;;;17.68;27.88;100429.24;108497;1283;22546;-65
2022/05/06 13:15:32;;;;;;;9.80;2.60;;;;;;;17.70;27.83;100431.34;108507;1284;23354;-65
2022/05/06 13:18:00;;;;;;;10.70;2.80;;;;;;;17.73;27.52;100422.29;108349;1284;137576;-65
2022/05/06 13:20:29;;;;;;;10.00;2.40;;;;;;;17.74;27.47;100420.29;108505;1283;23537;-66
2022/05/06 13:22:57;;;;;;;3.60;1.70;;;;;;;17.74;27.32;100421.66;108374;1284;137769;-65
2022/05/06 13:25:26;;;;;;;6.40;2.30;;;;;;;17.72;27.82;100418.81;108483;1284;22888;-65